Hooper Bay, Alaska
Current Conditions -  °F | °C
As of 4:56 PM on Friday 24 Oct 2014 (Local Time) from PAHP Reporting Station
Broken Clouds Broken Clouds  
Wind Chill: 29°   Ceiling: 2700
Heat Index: 37°   Visibility: 10mi
Dew Point: 34°   Wind: 15mph
Humidity: 87%   Direction: 210°SSW
Pressure: 29.82"   Gusts: 21mph
Location:  61.53°N, 166.1°W
Report Text: PAHP 250056Z AUTO 21013G18KT 10SM FEW012 SCT020 BKN027 03/01 A2982 RMK AO1
Loading
Personal Weather Stations






























Interactive Weather Map
Tropical Storm Tracking
New forecast layout! Learn more

10-Day Weather Forecast

Advertisements
Track Severe Weather on mobile